• Join FlightAware (Why Join?)
  • Login
  • US Flag 
02:16AM EDT


 

Airport Tracker/Info


-or-


 

Live Flight TrackerFlight Track Log ✈ FLG3729 ✈ 14-May-2013 ✈ KALB - KDTW

Flight Track Log - Related Links

Times and Time Zones

All times are in EDT time to prevent confusion due to time zone crossing. See the FLG3729 flight status page for this flight to view local times or setup timezone preferences in your user account.

Time Position Orientation Groundspeed Altitude Reporting Facility
EDT Latitude Longitude Course Direction KTS MPH feet Rate Location/Type
05:58AM 42.7631 -73.8061 283° West 170 196 1,200  Level Boston Center
05:59AM 42.8211 -73.8356 340° North 211 243 4,100 2,520 Climbing Boston Center
05:59AM 42.8478 -73.8814 308° West 259 298 6,100 3,360 Climbing Boston Center
06:00AM 42.8083 -74.1576 281° West  Level FlightAware Approximate
06:00AM 42.8944 -73.9647 307° West 264 304 9,900  Level Boston Center
06:01AM 42.8259 -74.2811 281° West  Level FlightAware Approximate
06:01AM 42.9414 -74.0483 308° West 264 304 12,500  Level Boston Center
06:02AM 42.8452 -74.4042 283° West  Level FlightAware Approximate
06:02AM 42.9919 -74.1433 306° West 297 342 14,100  Level Boston Center
06:03AM 42.8656 -74.5270 283° West  Level FlightAware Approximate
06:03AM 43.0153 -74.2658 285° West 326 375 16,300  Level Boston Center
06:04AM 43.0275 -74.3942 277° West 339 390 18,000 1,800 Climbing Boston Center
06:05AM 43.0378 -74.5308 276° West 358 412 19,900 1,740 Climbing Boston Center
06:06AM 43.0475 -74.6675 276° West 363 418 21,500 1,500 Climbing Boston Center
06:07AM 43.0575 -74.8014 276° West 363 418 23,000 1,380 Climbing Boston Center
06:08AM 43.0692 -74.9383 277° West 368 423 24,300 1,080 Climbing Boston Center
06:09AM 43.0806 -75.0811 276° West 368 423 25,200 780 Climbing Boston Center
06:10AM 43.0900 -75.2067 276° West 368 423 25,900 720 Climbing Boston Center
06:11AM 43.1031 -75.3522 277° West 373 429 26,700 780 Climbing Boston Center
06:12AM 43.1117 -75.4978 275° West 380 437 27,500 600 Climbing Boston Center
06:13AM 43.1222 -75.6461 276° West 392 451 28,000 240 Climbing Boston Center
06:14AM 43.1347 -75.7978 276° West 397 457 28,000  Level Boston Center
06:15AM 43.1447 -75.9433 275° West 397 457 28,000  Level Boston Center
06:18AM 43.1553 -76.2742 273° West 373 429 28,000  Level Cleveland Center
06:19AM 43.1422 -76.4258 263° West 390 449 28,000  Level Cleveland Center
06:20AM 43.1289 -76.5803 263° West 403 464 28,000  Level Cleveland Center
06:21AM 43.1136 -76.7464 263° West 413 475 28,000  Level Cleveland Center
06:22AM 43.0997 -76.9008 263° West 413 475 28,000  Level Cleveland Center
06:23AM 43.0858 -77.0522 263° West 413 475 28,000  Level Cleveland Center
06:24AM 43.0717 -77.2067 263° West 413 475 28,000  Level Cleveland Center
06:25AM 43.0592 -77.3550 263° West 413 475 28,000  Level Cleveland Center
06:26AM 43.0442 -77.4922 262° West 413 475 28,000  Level Cleveland Center
06:27AM 42.9958 -77.6339 245° Southwest 408 470 28,000  Level Cleveland Center
06:28AM 42.9389 -77.7756 241° Southwest 413 475 28,000  Level Cleveland Center
06:29AM 42.8839 -77.9197 243° Southwest 426 490 28,000  Level Cleveland Center
06:30AM 42.8222 -78.0553 238° Southwest 431 496 28,000  Level Cleveland Center
06:31AM 42.7500 -78.1883 234° Southwest 437 503 28,000  Level Cleveland Center
06:32AM 42.6800 -78.3236 235° Southwest 437 503 28,000  Level Cleveland Center
06:33AM 42.6556 -78.4658 257° West 400 460 28,000  Level Cleveland Center
06:34AM 42.6603 -78.6125 273° West 388 447 28,000  Level Cleveland Center
06:35AM 42.6667 -78.7592 273° West 388 447 28,000  Level Cleveland Center
06:36AM 42.6689 -78.9031 271° West 388 447 28,000  Level Cleveland Center
06:37AM 42.6731 -79.0497 272° West 388 447 28,000  Level Cleveland Center
06:38AM 42.6792 -79.1967 273° West 388 447 28,000  Level Cleveland Center
06:39AM 42.6828 -79.3461 272° West 388 447 28,000  Level Cleveland Center
06:40AM 42.6864 -79.4931 272° West 393 452 28,000  Level Cleveland Center
06:41AM 42.6897 -79.6397 272° West 393 452 28,000  Level Cleveland Center
06:42AM 42.6950 -79.7867 273° West 393 452 28,000  Level Cleveland Center
06:43AM 42.6981 -79.9306 272° West 393 452 28,000  Level Cleveland Center
06:44AM 42.6925 -80.0944 267° West 388 447 28,000 -180 Level Cleveland Center
06:45AM 42.6972 -80.2414 273° West 388 447 27,700 -600 Descending Cleveland Center
06:46AM 42.6997 -80.3769 271° West 388 447 26,800 -960 Descending Cleveland Center
06:47AM 42.7019 -80.5294 271° West 403 464 25,800 -1,020 Descending Cleveland Center
06:48AM 42.7039 -80.6878 271° West 410 472 24,800 -1,020 Descending Cleveland Center
06:49AM 42.7081 -80.8431 272° West 416 479 23,800 -1,020 Descending Cleveland Center
06:50AM 42.6928 -80.9983 262° West 421 484 22,800 -1,020 Descending Cleveland Center
06:51AM 42.6778 -81.1453 262° West 407 468 21,800 -1,020 Descending Cleveland Center
06:52AM 42.6622 -81.2861 262° West 394 453 20,800 -900 Descending Cleveland Center
06:53AM 42.6447 -81.4356 261° West 384 442 20,000 -420 Descending Cleveland Center
06:54AM 42.6267 -81.5792 260° West 384 442 20,000  Level Cleveland Center
06:55AM 42.6108 -81.7172 261° West 379 436 20,000  Level Cleveland Center
06:56AM 42.5908 -81.8550 259° West 379 436 20,000 -120 Level Cleveland Center
06:57AM 42.5744 -81.9986 261° West 379 436 19,800 -1,080 Descending Cleveland Center
06:58AM 42.5603 -82.1392 262° West 379 436 17,900 -2,100 Descending Cleveland Center
06:59AM 42.5417 -82.2683 259° West 379 436 15,700 -2,280 Descending Cleveland Center
06:59AM 42.5317 -82.3753 263° West 343 395 13,900 -2,040 Descending Cleveland Center
07:00AM 42.5150 -82.4986 260° West 337 388 12,100 -1,140 Descending Cleveland Center
07:02AM 42.4797 -82.6242 249° West 321 369 11,600 -960 Descending Cleveland Center
07:03AM 42.4422 -82.7272 244° Southwest 313 360 10,000 -1,560 Descending Cleveland Center
07:04AM 42.4217 -82.8222 254° West 284 327 8,400 -1,500 Descending Cleveland Center
07:05AM 42.4136 -82.9119 263° West 259 298 7,100 -1,200 Descending Cleveland Center
07:06AM 42.4181 -83.0075 274° West 254 292 6,100 -780 Descending Cleveland Center
07:07AM 42.4222 -83.1006 274° West 254 292 5,600 -600 Descending Cleveland Center
07:08AM 42.4100 -83.1789 258° West 241 277 5,000 -840 Descending Cleveland Center
07:09AM 42.3608 -83.2303 218° Southwest 212 244 4,000 -1,080 Descending Cleveland Center
07:10AM 42.2953 -83.2781 208° Southwest 165 190 2,500 -1,140 Descending Cleveland Center